createdAt,value
2022-09-02T00:01:27.477Z,15.60
2022-09-02T00:04:04.013Z,15.58
2022-09-02T00:06:31.622Z,15.56
2022-09-02T00:08:58.730Z,15.57
2022-09-02T00:11:28.517Z,15.55
2022-09-02T00:13:57.168Z,15.52
2022-09-02T00:16:24.984Z,15.50
2022-09-02T00:18:53.609Z,15.46
2022-09-02T00:21:21.365Z,15.44
2022-09-02T00:23:49.146Z,15.40
2022-09-02T00:26:15.754Z,15.40
2022-09-02T00:28:44.278Z,15.37
2022-09-02T00:31:15.806Z,15.36
2022-09-02T00:33:42.334Z,15.37
2022-09-02T00:36:09.301Z,15.38
2022-09-02T00:38:37.012Z,15.41
2022-09-02T00:41:06.808Z,15.43
2022-09-02T00:43:50.791Z,15.43
2022-09-02T00:46:20.715Z,15.34
2022-09-02T00:49:01.112Z,15.33
2022-09-02T00:51:33.698Z,15.34
2022-09-02T00:54:00.426Z,15.31
2022-09-02T00:56:31.301Z,15.27
2022-09-02T00:58:59.830Z,15.24
2022-09-02T01:01:27.218Z,15.21
2022-09-02T01:03:54.039Z,15.18
2022-09-02T01:06:25.045Z,15.14
2022-09-02T01:09:02.559Z,15.10
2022-09-02T01:11:39.093Z,15.09
2022-09-02T01:14:07.099Z,15.03
2022-09-02T01:16:53.320Z,14.99
2022-09-02T01:19:27.176Z,14.97
2022-09-02T01:21:55.289Z,14.97
2022-09-02T01:24:23.624Z,14.99
2022-09-02T01:26:53.224Z,15.01
2022-09-02T01:29:20.097Z,15.02
2022-09-02T01:31:46.716Z,15.01
2022-09-02T01:34:13.472Z,15.01
2022-09-02T01:36:41.675Z,15.00
2022-09-02T01:39:10.061Z,14.96
2022-09-02T01:41:36.750Z,14.96
2022-09-02T01:44:05.658Z,14.96
2022-09-02T01:46:34.245Z,14.93
2022-09-02T01:49:00.787Z,14.89
2022-09-02T01:51:27.912Z,14.90
2022-09-02T01:53:54.428Z,14.90
2022-09-02T01:56:20.881Z,14.88
2022-09-02T01:58:47.394Z,14.86
2022-09-02T02:01:13.939Z,14.85
2022-09-02T02:03:41.551Z,14.86
2022-09-02T02:06:14.034Z,14.83
2022-09-02T02:08:40.877Z,14.81
2022-09-02T02:11:07.432Z,14.80
2022-09-02T02:13:34.001Z,14.80
2022-09-02T02:16:00.623Z,14.80
2022-09-02T02:18:27.789Z,14.79
2022-09-02T02:20:54.370Z,14.76
2022-09-02T02:23:22.488Z,14.72
2022-09-02T02:25:49.091Z,14.69
2022-09-02T02:28:15.574Z,14.70
2022-09-02T02:30:42.164Z,14.69
2022-09-02T02:33:08.599Z,14.67
2022-09-02T02:35:35.153Z,14.65
2022-09-02T02:38:03.650Z,14.65
2022-09-02T02:40:30.697Z,14.62
2022-09-02T02:42:57.235Z,14.64
2022-09-02T02:45:24.933Z,14.63
2022-09-02T02:47:52.312Z,14.63
2022-09-02T02:50:20.693Z,14.60
2022-09-02T02:52:48.882Z,14.59
2022-09-02T02:55:16.502Z,14.55
2022-09-02T02:57:43.683Z,14.53
2022-09-02T03:00:13.793Z,14.50
2022-09-02T03:02:40.918Z,14.46
2022-09-02T03:05:09.487Z,14.42
2022-09-02T03:07:35.916Z,14.40
2022-09-02T03:10:08.290Z,14.37
2022-09-02T03:12:36.739Z,14.35
2022-09-02T03:15:04.580Z,14.32
2022-09-02T03:17:31.076Z,14.30
2022-09-02T03:19:59.374Z,14.24
2022-09-02T03:22:27.513Z,14.18
2022-09-02T03:24:54.104Z,14.15
2022-09-02T03:27:20.500Z,14.15
2022-09-02T03:29:47.072Z,14.16
2022-09-02T03:32:14.820Z,14.13
2022-09-02T03:34:42.213Z,14.11
2022-09-02T03:37:09.131Z,14.07
2022-09-02T03:39:37.425Z,14.05
2022-09-02T03:42:05.621Z,14.08
2022-09-02T03:44:34.226Z,14.09
2022-09-02T03:47:01.314Z,14.09
2022-09-02T03:49:28.379Z,14.09
2022-09-02T03:51:54.948Z,14.10
2022-09-02T03:54:21.494Z,14.10
2022-09-02T03:56:47.966Z,14.10
2022-09-02T03:59:14.484Z,14.08
2022-09-02T04:01:41.392Z,14.07
2022-09-02T04:04:08.799Z,14.04
2022-09-02T04:06:35.745Z,14.01
2022-09-02T04:09:02.811Z,13.99
2022-09-02T04:11:29.480Z,13.98
2022-09-02T04:13:55.962Z,13.98
2022-09-02T04:16:28.900Z,13.97
2022-09-02T04:18:57.697Z,13.96
2022-09-02T04:21:25.734Z,13.94
2022-09-02T04:23:55.318Z,13.93
2022-09-02T04:26:22.747Z,13.94
2022-09-02T04:28:50.482Z,13.93
2022-09-02T04:31:19.694Z,13.89
2022-09-02T04:33:48.429Z,13.88
2022-09-02T04:36:16.990Z,13.87
2022-09-02T04:38:44.081Z,13.89
2022-09-02T04:41:17.161Z,13.92
2022-09-02T04:43:43.667Z,13.95
2022-09-02T04:46:12.801Z,13.97
2022-09-02T04:48:40.550Z,13.98
2022-09-02T04:51:13.396Z,13.97
2022-09-02T04:53:41.263Z,13.96
2022-09-02T04:56:10.045Z,13.98
2022-09-02T04:58:37.817Z,13.99
2022-09-02T05:01:09.743Z,14.00
2022-09-02T05:03:37.760Z,13.97
2022-09-02T05:06:07.187Z,13.97
2022-09-02T05:08:36.518Z,13.97
2022-09-02T05:11:10.908Z,13.98
2022-09-02T05:13:37.437Z,13.96
2022-09-02T05:16:04.132Z,13.98
2022-09-02T05:18:31.242Z,13.99
2022-09-02T05:20:57.758Z,14.00
2022-09-02T05:23:24.345Z,14.01
2022-09-02T05:25:51.186Z,14.05
2022-09-02T05:28:17.750Z,14.10
2022-09-02T05:30:44.330Z,14.15
2022-09-02T05:33:13.714Z,14.23
2022-09-02T05:35:45.501Z,14.26
2022-09-02T05:38:14.742Z,14.35
2022-09-02T05:40:41.295Z,14.40
2022-09-02T05:43:07.800Z,14.43
2022-09-02T05:45:34.440Z,14.46
2022-09-02T05:48:20.855Z,14.48
2022-09-02T05:50:47.655Z,14.53
2022-09-02T05:53:26.773Z,14.57
2022-09-02T05:55:53.503Z,14.60
2022-09-02T05:58:20.168Z,14.66
2022-09-02T06:00:46.715Z,14.71
2022-09-02T06:03:13.646Z,14.77
2022-09-02T06:05:41.129Z,14.83
2022-09-02T06:08:07.959Z,14.87
2022-09-02T06:10:34.490Z,14.93
2022-09-02T06:13:00.975Z,15.00
2022-09-02T06:15:30.777Z,15.09
2022-09-02T06:17:59.545Z,15.14
2022-09-02T06:20:29.105Z,15.22
2022-09-02T06:22:55.676Z,15.34
2022-09-02T06:25:22.156Z,15.42
2022-09-02T06:27:48.602Z,15.50
2022-09-02T06:30:15.083Z,15.57
2022-09-02T06:32:41.571Z,15.62
2022-09-02T06:35:09.641Z,15.73
2022-09-02T06:37:36.002Z,15.82
2022-09-02T06:40:03.176Z,15.89
2022-09-02T06:42:29.608Z,15.95
2022-09-02T06:44:56.302Z,16.02
2022-09-02T06:47:22.749Z,16.10
2022-09-02T06:49:49.783Z,16.17
2022-09-02T06:52:16.250Z,16.26
2022-09-02T06:54:42.806Z,16.33
2022-09-02T06:57:09.290Z,16.42
2022-09-02T06:59:36.497Z,16.52
2022-09-02T07:02:04.036Z,16.63
2022-09-02T07:04:49.458Z,16.74
2022-09-02T07:07:16.857Z,16.87
2022-09-02T07:09:44.155Z,16.97
2022-09-02T07:12:11.350Z,17.07
2022-09-02T07:14:40.903Z,17.16
2022-09-02T07:17:10.127Z,17.28
2022-09-02T07:19:37.327Z,17.35
2022-09-02T07:22:05.959Z,17.44
2022-09-02T07:24:32.563Z,17.54
2022-09-02T07:26:59.089Z,17.61
2022-09-02T07:29:25.700Z,17.71
2022-09-02T07:31:52.338Z,17.76
2022-09-02T07:34:19.490Z,17.78
2022-09-02T07:36:46.837Z,17.82
2022-09-02T07:39:15.456Z,17.89
2022-09-02T07:41:44.660Z,17.96
2022-09-02T07:44:11.808Z,18.01
2022-09-02T07:46:39.544Z,18.02
2022-09-02T07:49:09.863Z,18.11
2022-09-02T07:51:39.237Z,18.21
2022-09-02T07:54:11.416Z,18.28
2022-09-02T07:56:37.929Z,18.34
2022-09-02T07:59:05.080Z,18.41
2022-09-02T08:01:32.254Z,18.43
2022-09-02T08:04:01.447Z,18.47
2022-09-02T08:06:34.501Z,18.51
2022-09-02T08:09:06.872Z,18.56
2022-09-02T08:11:36.737Z,18.66
2022-09-02T08:14:03.241Z,18.75
2022-09-02T08:16:30.250Z,18.86
2022-09-02T08:18:56.832Z,18.91
2022-09-02T08:21:24.688Z,18.96
2022-09-02T08:23:51.283Z,19.03
2022-09-02T08:26:19.041Z,19.06
2022-09-02T08:28:45.767Z,19.16
2022-09-02T08:31:12.243Z,19.33
2022-09-02T08:33:38.741Z,19.41
2022-09-02T08:36:08.438Z,19.46
2022-09-02T08:38:35.799Z,19.59
2022-09-02T08:41:02.754Z,19.72
2022-09-02T08:43:43.354Z,19.87
2022-09-02T08:46:13.207Z,20.02
2022-09-02T08:48:45.216Z,20.09
2022-09-02T08:51:20.540Z,20.17
2022-09-02T08:54:05.596Z,20.17
2022-09-02T08:56:32.332Z,20.25
2022-09-02T08:59:03.725Z,20.31
2022-09-02T09:01:51.303Z,20.36
2022-09-02T09:05:12.676Z,20.50
2022-09-02T09:07:59.763Z,20.70
2022-09-02T09:10:54.826Z,20.87
2022-09-02T09:13:41.210Z,20.97
2022-09-02T09:16:24.045Z,21.13
2022-09-02T09:18:59.839Z,21.21
2022-09-02T09:21:26.824Z,21.27
2022-09-02T09:23:56.698Z,21.37
2022-09-02T09:26:36.960Z,21.54
2022-09-02T09:29:07.002Z,21.57
2022-09-02T09:31:36.021Z,21.63
2022-09-02T09:34:11.679Z,21.74
2022-09-02T09:36:41.177Z,21.86
2022-09-02T09:39:17.935Z,21.88
2022-09-02T09:41:46.005Z,22.01
2022-09-02T09:44:34.285Z,22.12
2022-09-02T09:47:02.471Z,22.25
2022-09-02T09:49:32.255Z,22.36
2022-09-02T09:52:00.340Z,22.47
2022-09-02T09:54:27.951Z,22.57
2022-09-02T09:56:55.677Z,22.72
2022-09-02T09:59:42.796Z,22.79
2022-09-02T10:02:22.229Z,22.86
2022-09-02T10:04:49.533Z,22.92
2022-09-02T10:07:35.136Z,22.97
2022-09-02T10:10:16.161Z,22.98
2022-09-02T10:12:44.072Z,22.98
2022-09-02T10:15:12.548Z,23.05
2022-09-02T10:17:48.298Z,23.18
2022-09-02T10:20:48.610Z,23.47
2022-09-02T10:23:53.669Z,23.73
2022-09-02T10:26:43.484Z,23.87
2022-09-02T10:29:41.613Z,23.98
2022-09-02T10:32:07.914Z,24.21
2022-09-02T10:34:56.308Z,24.42
2022-09-02T10:37:35.534Z,24.53
2022-09-02T10:40:37.509Z,24.54
2022-09-02T10:43:18.861Z,24.58
2022-09-02T10:45:47.900Z,24.66
2022-09-02T10:48:39.317Z,24.78
2022-09-02T10:51:15.683Z,24.86
2022-09-02T10:54:13.513Z,24.76
2022-09-02T10:57:01.594Z,24.77
2022-09-02T10:59:37.646Z,24.89
2022-09-02T11:02:38.577Z,24.89
2022-09-02T11:05:14.030Z,25.05
2022-09-02T11:07:51.129Z,25.24
2022-09-02T11:10:50.597Z,25.35
2022-09-02T11:13:29.841Z,25.58
2022-09-02T11:15:59.576Z,25.79
2022-09-02T11:19:10.710Z,26.05
2022-09-02T11:21:48.244Z,26.11
2022-09-02T11:24:22.061Z,26.19
2022-09-02T11:27:26.010Z,25.99
2022-09-02T11:30:11.870Z,26.01
2022-09-02T11:32:43.809Z,26.10
2022-09-02T11:35:17.000Z,25.84
2022-09-02T11:37:53.416Z,25.83
2022-09-02T11:40:36.809Z,25.85
2022-09-02T11:43:42.878Z,25.99
2022-09-02T11:46:54.990Z,26.24
2022-09-02T11:49:44.390Z,26.53
2022-09-02T11:52:39.092Z,26.91
2022-09-02T11:55:16.736Z,27.10
2022-09-02T11:57:52.401Z,27.21
2022-09-02T12:00:30.451Z,27.36
2022-09-02T12:03:37.868Z,27.33
2022-09-02T12:06:13.255Z,27.33
2022-09-02T12:08:44.517Z,27.39
2022-09-02T12:11:49.650Z,27.66
2022-09-02T12:14:25.171Z,27.53
2022-09-02T12:17:04.793Z,27.61
2022-09-02T12:19:45.794Z,27.75
2022-09-02T12:22:15.264Z,27.80
2022-09-02T12:24:58.280Z,27.76
2022-09-02T12:27:29.977Z,27.91
2022-09-02T12:29:58.842Z,27.84
2022-09-02T12:32:48.726Z,28.20
2022-09-02T12:35:50.146Z,28.36
2022-09-02T12:38:26.053Z,28.41
2022-09-02T12:41:05.076Z,27.97
2022-09-02T12:43:52.122Z,27.52
2022-09-02T12:46:32.811Z,27.16
2022-09-02T12:49:36.451Z,26.98
2022-09-02T12:52:04.869Z,26.78
2022-09-02T12:54:49.125Z,26.93
2022-09-02T12:57:19.217Z,26.92
2022-09-02T12:59:47.859Z,27.36
2022-09-02T13:02:32.888Z,27.66
2022-09-02T13:05:30.357Z,27.55
2022-09-02T13:08:21.524Z,27.11
2022-09-02T13:10:58.076Z,26.72
2022-09-02T13:13:48.003Z,26.43
2022-09-02T13:16:33.674Z,26.38
2022-09-02T13:19:20.058Z,26.71
2022-09-02T13:22:06.302Z,26.58
2022-09-02T13:24:52.495Z,26.41
2022-09-02T13:27:55.021Z,26.30
2022-09-02T13:30:38.082Z,26.22
2022-09-02T13:33:12.120Z,26.26
2022-09-02T13:35:40.835Z,26.89
2022-09-02T13:40:39.556Z,27.54
2022-09-02T13:43:15.622Z,27.24
2022-09-02T13:45:43.009Z,26.77
2022-09-02T13:48:41.909Z,26.74
2022-09-02T13:51:14.955Z,26.62
2022-09-02T13:54:18.771Z,26.39
2022-09-02T13:56:34.591Z,26.25
2022-09-02T13:59:01.257Z,26.19
2022-09-02T14:01:34.405Z,26.36
2022-09-02T14:04:05.994Z,26.81
2022-09-02T14:06:37.127Z,27.28
2022-09-02T14:09:08.647Z,27.66
2022-09-02T14:11:46.514Z,28.07
2022-09-02T14:14:19.765Z,28.11
2022-09-02T14:16:46.339Z,28.08
2022-09-02T14:19:22.025Z,28.10
2022-09-02T14:21:51.113Z,28.33
2022-09-02T14:24:24.489Z,28.46
2022-09-02T14:26:54.745Z,28.67
2022-09-02T14:29:22.154Z,28.58
2022-09-02T14:32:08.848Z,28.69
2022-09-02T14:34:38.286Z,28.45
2022-09-02T14:37:26.731Z,28.23
2022-09-02T14:40:12.200Z,28.36
2022-09-02T14:42:45.271Z,28.51
2022-09-02T14:45:12.693Z,28.42
2022-09-02T14:47:40.845Z,28.48
2022-09-02T14:50:15.303Z,28.65
2022-09-02T14:52:48.292Z,28.64
2022-09-02T14:55:46.304Z,28.69
2022-09-02T14:58:12.870Z,28.80
2022-09-02T15:00:39.621Z,28.69
2022-09-02T15:03:07.334Z,28.64
2022-09-02T15:05:34.004Z,28.51
2022-09-02T15:08:00.477Z,28.44
2022-09-02T15:10:27.880Z,28.32
2022-09-02T15:12:55.146Z,28.31
2022-09-02T15:15:21.737Z,28.27
2022-09-02T15:17:48.231Z,28.22
2022-09-02T15:20:15.567Z,28.17
2022-09-02T15:22:42.915Z,28.08
2022-09-02T15:25:09.469Z,28.03
2022-09-02T15:27:37.009Z,27.96
2022-09-02T15:30:04.477Z,27.94
2022-09-02T15:32:31.650Z,27.64
2022-09-02T15:34:58.181Z,27.41
2022-09-02T15:37:25.368Z,27.19
2022-09-02T15:39:51.912Z,27.06
2022-09-02T15:42:18.489Z,26.91
2022-09-02T15:44:46.244Z,26.87
2022-09-02T15:47:12.705Z,27.04
2022-09-02T15:49:39.217Z,27.22
2022-09-02T15:52:06.285Z,27.21
2022-09-02T15:54:33.366Z,27.11
2022-09-02T15:57:00.052Z,27.12
2022-09-02T15:59:27.495Z,27.16
2022-09-02T16:01:57.226Z,27.19
2022-09-02T16:04:23.913Z,27.28
2022-09-02T16:06:54.746Z,27.33
2022-09-02T16:09:21.774Z,27.32
2022-09-02T16:11:54.218Z,27.35
2022-09-02T16:14:22.111Z,27.39
2022-09-02T16:16:50.786Z,27.42
2022-09-02T16:19:21.307Z,27.51
2022-09-02T16:21:49.091Z,27.29
2022-09-02T16:24:15.680Z,27.16
2022-09-02T16:26:42.549Z,27.02
2022-09-02T16:29:13.635Z,26.84
2022-09-02T16:31:42.238Z,26.74
2022-09-02T16:34:10.253Z,26.71
2022-09-02T16:36:40.141Z,26.61
2022-09-02T16:39:07.494Z,26.54
2022-09-02T16:41:39.129Z,26.47
2022-09-02T16:44:08.458Z,26.44
2022-09-02T16:46:37.011Z,26.39
2022-09-02T16:49:03.921Z,26.34
2022-09-02T16:51:30.442Z,26.23
2022-09-02T16:54:02.477Z,26.15
2022-09-02T16:56:30.643Z,26.10
2022-09-02T16:59:01.897Z,25.99
2022-09-02T17:01:32.299Z,25.86
2022-09-02T17:04:00.338Z,25.74
2022-09-02T17:06:27.253Z,25.67
2022-09-02T17:08:54.118Z,25.59
2022-09-02T17:11:22.276Z,25.52
2022-09-02T17:14:00.144Z,25.41
2022-09-02T17:16:29.855Z,25.38
2022-09-02T17:18:56.511Z,25.32
2022-09-02T17:21:28.342Z,25.17
2022-09-02T17:23:56.382Z,24.97
2022-09-02T17:26:26.021Z,24.83
2022-09-02T17:28:55.671Z,24.74
2022-09-02T17:31:33.413Z,24.68
2022-09-02T17:34:03.969Z,24.52
2022-09-02T17:36:32.317Z,24.44
2022-09-02T17:39:07.980Z,24.37
2022-09-02T17:41:53.552Z,24.27
2022-09-02T17:44:24.583Z,24.10
2022-09-02T17:46:51.766Z,23.94
2022-09-02T17:49:19.119Z,23.85
2022-09-02T17:51:47.321Z,23.71
2022-09-02T17:54:14.923Z,23.62
2022-09-02T17:56:54.742Z,23.54
2022-09-02T17:59:48.092Z,23.47
2022-09-02T18:02:35.832Z,23.34
2022-09-02T18:05:05.278Z,23.22
2022-09-02T18:07:39.107Z,23.09
2022-09-02T18:10:05.738Z,23.02
2022-09-02T18:12:35.761Z,22.94
2022-09-02T18:15:05.724Z,22.87
2022-09-02T18:17:41.220Z,22.76
2022-09-02T18:20:16.969Z,22.67
2022-09-02T18:22:52.967Z,22.62
2022-09-02T18:25:33.019Z,22.61
2022-09-02T18:28:27.154Z,22.52
2022-09-02T18:31:03.266Z,22.43
2022-09-02T18:33:48.808Z,22.39
2022-09-02T18:36:28.857Z,22.31
2022-09-02T18:39:27.779Z,22.18
2022-09-02T18:42:10.417Z,22.04
2022-09-02T18:44:40.381Z,21.95
2022-09-02T18:47:23.438Z,21.92
2022-09-02T18:49:54.061Z,21.81
2022-09-02T18:52:26.469Z,21.72
2022-09-02T18:55:15.860Z,21.64
2022-09-02T18:57:55.084Z,21.57
2022-09-02T19:00:22.851Z,21.48
2022-09-02T19:03:01.073Z,21.45
2022-09-02T19:05:29.867Z,21.40
2022-09-02T19:08:27.731Z,21.29
2022-09-02T19:11:05.244Z,21.22
2022-09-02T19:13:44.001Z,21.14
2022-09-02T19:16:11.090Z,21.05
2022-09-02T19:18:37.691Z,20.97
2022-09-02T19:21:04.581Z,20.96
2022-09-02T19:23:31.952Z,20.93
2022-09-02T19:25:59.241Z,20.89
2022-09-02T19:28:26.645Z,20.86
2022-09-02T19:31:01.437Z,20.80
2022-09-02T19:33:31.120Z,20.76
2022-09-02T19:35:59.292Z,20.72
2022-09-02T19:38:27.392Z,20.66
2022-09-02T19:40:54.606Z,20.58
2022-09-02T19:43:21.528Z,20.49
2022-09-02T19:45:50.246Z,20.44
2022-09-02T19:48:18.169Z,20.37
2022-09-02T19:50:45.713Z,20.33
2022-09-02T19:53:29.988Z,20.20
2022-09-02T19:55:57.231Z,20.10
2022-09-02T19:58:24.055Z,20.03
2022-09-02T20:00:53.241Z,19.96
2022-09-02T20:03:20.892Z,19.90
2022-09-02T20:05:54.004Z,19.86
2022-09-02T20:08:24.469Z,19.83
2022-09-02T20:10:58.812Z,19.77
2022-09-02T20:13:26.142Z,19.73
2022-09-02T20:15:54.740Z,19.67
2022-09-02T20:18:23.973Z,19.61
2022-09-02T20:20:53.119Z,19.54
2022-09-02T20:23:22.019Z,19.48
2022-09-02T20:26:10.596Z,19.41
2022-09-02T20:28:59.526Z,19.35
2022-09-02T20:31:52.841Z,19.30
2022-09-02T20:34:34.948Z,19.27
2022-09-02T20:37:36.516Z,19.23
2022-09-02T20:40:27.024Z,19.18
2022-09-02T20:43:28.200Z,19.14
2022-09-02T20:46:01.378Z,19.11
2022-09-02T20:48:28.024Z,19.07
2022-09-02T20:51:18.449Z,19.03
2022-09-02T20:54:06.865Z,19.01
2022-09-02T20:56:38.577Z,18.95
2022-09-02T20:59:28.844Z,18.94
2022-09-02T21:01:59.475Z,18.90
2022-09-02T21:04:25.899Z,18.86
2022-09-02T21:07:01.170Z,18.85
2022-09-02T21:09:42.987Z,18.85
2022-09-02T21:12:18.411Z,18.77
2022-09-02T21:14:48.533Z,18.74
2022-09-02T21:17:38.717Z,18.71
2022-09-02T21:20:42.620Z,18.64
2022-09-02T21:23:20.513Z,18.61
2022-09-02T21:25:53.919Z,18.63
2022-09-02T21:28:40.348Z,18.66
2022-09-02T21:31:33.128Z,18.65
2022-09-02T21:34:05.034Z,18.63
2022-09-02T21:36:33.411Z,18.62
2022-09-02T21:39:05.813Z,18.53
2022-09-02T21:41:43.289Z,18.49
2022-09-02T21:44:28.627Z,18.44
2022-09-02T21:47:19.918Z,18.39
2022-09-02T21:50:11.875Z,18.35
2022-09-02T21:52:48.353Z,18.32
2022-09-02T21:55:28.990Z,18.28
2022-09-02T21:58:09.315Z,18.27
2022-09-02T22:00:39.237Z,18.26
2022-09-02T22:03:23.564Z,18.24
2022-09-02T22:05:50.050Z,18.23
2022-09-02T22:08:40.237Z,18.20
2022-09-02T22:11:54.361Z,18.17
2022-09-02T22:14:35.802Z,18.14
2022-09-02T22:17:10.047Z,18.13
2022-09-02T22:19:40.346Z,18.07
2022-09-02T22:22:15.023Z,18.03
2022-09-02T22:24:41.482Z,18.01
2022-09-02T22:27:40.255Z,17.95
2022-09-02T22:30:13.398Z,17.88
2022-09-02T22:32:53.966Z,17.88
2022-09-02T22:35:30.102Z,17.84
2022-09-02T22:38:02.364Z,17.82
2022-09-02T22:40:36.096Z,17.78
2022-09-02T22:43:06.936Z,17.73
2022-09-02T22:46:11.801Z,17.69
2022-09-02T22:49:25.347Z,17.67
2022-09-02T22:52:20.986Z,17.57
2022-09-02T22:54:48.623Z,17.58
2022-09-02T22:57:49.652Z,17.53
2022-09-02T23:00:18.512Z,17.51
2022-09-02T23:03:05.116Z,17.47
2022-09-02T23:06:13.721Z,17.40
2022-09-02T23:08:43.874Z,17.37
2022-09-02T23:11:11.701Z,17.34
2022-09-02T23:14:08.909Z,17.34
2022-09-02T23:17:03.705Z,17.33
2022-09-02T23:20:05.663Z,17.27
2022-09-02T23:22:55.716Z,17.22
2022-09-02T23:25:52.064Z,17.21
2022-09-02T23:28:28.123Z,17.22
2022-09-02T23:31:38.768Z,17.17
2022-09-02T23:34:41.372Z,17.11
2022-09-02T23:38:01.809Z,17.05
2022-09-02T23:40:51.746Z,17.00
2022-09-02T23:43:19.052Z,16.96
2022-09-02T23:45:46.859Z,16.93
2022-09-02T23:48:16.229Z,16.93
2022-09-02T23:50:57.508Z,16.87
2022-09-02T23:53:26.247Z,16.86
2022-09-02T23:56:04.523Z,16.79
2022-09-02T23:58:57.447Z,16.71
